Cowlington, Oklahoma
Current Conditions -  °F | °C
As of 8:15 PM on Thursday 20 Nov 2014 (Local Time) from KGZL Reporting Station
Scattered Clouds Scattered Clouds  
Wind Chill:   Ceiling: Unl
Heat Index:   Visibility: 10mi
Dew Point: -2°   Wind: 8mph
Humidity: 50%   Direction: 100°E
Pressure: 30.12"   Gusts: NA
Location:  35.2597°N, 94.8795°W
Report Text: KGZL 210215Z AUTO 10007KT 10SM FEW044 SCT050 08/M02 A3012 RMK AO2
Loading
Personal Weather Stations






























Interactive Weather Map New forecast layout! Learn more

10-Day Weather Forecast

Advertisements
Track Severe Weather on mobile